Time;durP1;ratioP1;P1;durP2;ratioP2;P2;SDS_P1;SDS_P2;PMS_P1;PMS_P2;Temp;Humidity;BMP_temperature;BMP_pressure;BME280_temperature;BME280_humidity;BME280_pressure;Samples;Min_cycle;Max_cycle;Signal;HPM_P1;HPM_P2
2023/10/20 00:01:54;;;;;;;6.53;3.08;;;;;;;23.18;85.78;98513.00;5023257;28;20044;-77
2023/10/20 00:04:19;;;;;;;6.82;2.95;;;;;;;23.17;85.47;98501.13;5037677;28;20038;-78
2023/10/20 00:06:45;;;;;;;4.60;2.88;;;;;;;23.17;85.43;98498.38;5056069;28;20040;-77
2023/10/20 00:09:14;;;;;;;5.43;2.72;;;;;;;23.16;85.95;98501.47;5037929;28;20028;-78
2023/10/20 00:11:41;;;;;;;4.20;2.50;;;;;;;23.14;85.94;98493.56;5035793;28;20412;-78
2023/10/20 00:14:07;;;;;;;4.70;2.80;;;;;;;23.14;85.90;98493.56;5038795;28;20501;-77
2023/10/20 00:16:33;;;;;;;3.85;2.70;;;;;;;23.13;85.69;98491.97;5022418;28;20033;-77
2023/10/20 00:19:01;;;;;;;5.13;2.90;;;;;;;23.10;86.06;98489.91;5068086;28;20044;-77
2023/10/20 00:21:26;;;;;;;5.35;2.60;;;;;;;23.13;85.84;98483.69;5052504;28;20029;-77
2023/10/20 00:23:52;;;;;;;5.70;3.00;;;;;;;23.11;85.98;98494.28;5036396;28;20130;-77
2023/10/20 00:26:17;;;;;;;3.15;2.60;;;;;;;23.11;86.14;98494.28;5056445;28;21269;-78
2023/10/20 00:28:43;;;;;;;3.58;2.47;;;;;;;23.12;86.21;98497.88;5055721;28;20124;-77
2023/10/20 00:31:11;;;;;;;4.55;2.88;;;;;;;23.11;86.11;98487.97;5036171;28;20085;-76
2023/10/20 00:33:37;;;;;;;5.30;2.58;;;;;;;23.11;86.15;98491.53;5056135;28;20462;-76
2023/10/20 00:36:02;;;;;;;3.45;2.60;;;;;;;23.13;85.79;98494.72;5022712;28;20328;-76
2023/10/20 00:38:27;;;;;;;4.18;2.78;;;;;;;23.12;86.08;98478.53;5055652;28;20058;-77
2023/10/20 00:40:53;;;;;;;4.60;3.00;;;;;;;23.14;85.86;98482.50;5052986;28;20197;-76
2023/10/20 00:43:18;;;;;;;5.18;2.70;;;;;;;23.14;85.90;98468.69;5055673;28;20089;-76
2023/10/20 00:45:45;;;;;;;4.15;2.90;;;;;;;23.15;85.75;98462.00;5036439;28;20047;-76
2023/10/20 00:48:12;;;;;;;4.60;2.90;;;;;;;23.18;86.01;98457.75;5020925;28;20032;-76
2023/10/20 00:50:38;;;;;;;4.75;3.00;;;;;;;23.19;85.60;98453.81;5056651;28;20051;-75
2023/10/20 00:53:05;;;;;;;3.97;2.92;;;;;;;23.21;85.63;98448.69;5055825;28;20237;-76
2023/10/20 00:55:31;;;;;;;4.22;3.00;;;;;;;23.21;85.68;98443.16;5059552;28;20050;-75
2023/10/20 00:57:57;;;;;;;4.45;2.90;;;;;;;23.21;85.46;98440.41;5025662;28;20028;-77
2023/10/20 01:00:22;;;;;;;4.68;2.83;;;;;;;23.21;85.60;98432.94;5061197;28;20644;-77
2023/10/20 01:02:48;;;;;;;3.63;2.50;;;;;;;23.19;85.80;98440.00;5060104;28;20027;-77
2023/10/20 01:05:22;;;;;;;4.13;2.78;;;;;;;23.20;85.72;98442.38;5039662;28;20541;-77
2023/10/20 01:07:48;;;;;;;4.40;3.07;;;;;;;23.18;85.72;98439.19;5025112;28;20054;-76
2023/10/20 01:10:13;;;;;;;4.88;3.60;;;;;;;23.17;85.77;98436.81;5059182;28;20024;-77
2023/10/20 01:12:39;;;;;;;3.88;3.03;;;;;;;23.15;86.02;98445.44;5056363;28;20494;-77
2023/10/20 01:15:06;;;;;;;3.47;2.90;;;;;;;23.14;85.86;98454.06;5039111;28;20703;-77
2023/10/20 01:17:33;;;;;;;4.72;2.60;;;;;;;23.15;86.17;98441.84;5059360;28;20036;-77
2023/10/20 01:20:05;;;;;;;5.50;3.25;;;;;;;23.11;86.03;98427.97;5058529;28;20032;-77
2023/10/20 01:22:31;;;;;;;6.25;3.00;;;;;;;23.11;86.10;98421.66;5059534;28;20280;-77
2023/10/20 01:24:57;;;;;;;2.97;2.45;;;;;;;23.08;86.24;98418.47;5059077;28;20041;-76
2023/10/20 01:27:22;;;;;;;4.93;3.28;;;;;;;23.09;85.99;98413.75;5039755;28;20298;-76
2023/10/20 01:29:48;;;;;;;3.58;2.83;;;;;;;23.09;85.89;98419.28;5023132;28;20039;-76
2023/10/20 01:32:13;;;;;;;4.57;3.20;;;;;;;23.08;86.23;98412.16;5059434;28;20081;-76
2023/10/20 01:34:39;;;;;;;4.35;2.90;;;;;;;23.08;86.02;98401.13;5027401;28;20036;-76
2023/10/20 01:37:04;;;;;;;3.05;2.65;;;;;;;23.09;86.35;98391.66;5058761;28;20036;-76
2023/10/20 01:39:29;;;;;;;3.65;3.05;;;;;;;23.05;86.19;98388.84;5036259;28;20047;-76
2023/10/20 01:41:55;;;;;;;3.78;2.60;;;;;;;23.04;86.65;98386.44;5038564;28;20467;-76
2023/10/20 01:44:21;;;;;;;4.72;2.80;;;;;;;23.03;86.90;98382.09;5021400;28;20122;-75
2023/10/20 01:46:50;;;;;;;5.57;2.88;;;;;;;23.02;86.57;98381.28;5041060;28;20028;-76
2023/10/20 01:49:17;;;;;;;4.68;2.80;;;;;;;23.03;86.45;98373.81;5038226;28;20123;-76
2023/10/20 01:51:42;;;;;;;4.25;3.03;;;;;;;23.01;86.58;98367.84;5037841;28;21435;-76
2023/10/20 01:54:07;;;;;;;5.25;3.05;;;;;;;23.01;86.59;98365.09;5024082;28;20037;-76
2023/10/20 01:56:33;;;;;;;3.85;2.88;;;;;;;22.99;86.76;98359.13;5020923;28;20065;-76
2023/10/20 01:58:58;;;;;;;3.85;3.20;;;;;;;22.99;86.91;98357.19;5038255;28;20104;-76
2023/10/20 02:01:24;;;;;;;5.68;3.38;;;;;;;22.99;86.80;98361.88;5020515;28;20032;-75
2023/10/20 02:03:49;;;;;;;4.28;3.08;;;;;;;22.99;86.66;98353.59;5020447;28;21564;-74
2023/10/20 02:06:16;;;;;;;3.75;2.95;;;;;;;23.01;86.51;98351.28;5023812;28;20040;-75
2023/10/20 02:08:42;;;;;;;6.20;3.58;;;;;;;22.98;86.63;98330.72;5058295;28;20139;-75
2023/10/20 02:11:08;;;;;;;3.53;3.00;;;;;;;22.98;86.94;98324.38;5057074;28;20391;-75
2023/10/20 02:13:35;;;;;;;5.53;3.38;;;;;;;22.97;86.98;98323.59;5037462;28;20040;-74
2023/10/20 02:16:00;;;;;;;3.70;3.25;;;;;;;22.96;86.65;98318.47;5057368;28;21420;-75
2023/10/20 02:18:26;;;;;;;6.18;3.15;;;;;;;22.96;86.76;98304.66;5056856;28;21041;-74
2023/10/20 02:20:59;;;;;;;4.50;3.65;;;;;;;22.96;87.08;98299.91;5022852;28;20119;-75
2023/10/20 02:23:25;;;;;;;4.22;3.30;;;;;;;22.96;87.11;98290.84;5071066;28;20079;-76
2023/10/20 02:25:58;;;;;;;3.15;2.85;;;;;;;22.96;86.89;98277.03;5058069;28;20710;-75
2023/10/20 02:28:23;;;;;;;4.38;3.10;;;;;;;22.98;86.54;98269.97;5021942;28;20052;-75
2023/10/20 02:30:49;;;;;;;3.35;2.92;;;;;;;22.99;86.44;98279.03;5044124;28;20649;-76
2023/10/20 02:33:14;;;;;;;4.53;3.70;;;;;;;22.99;86.83;98279.03;5057449;28;20035;-76
2023/10/20 02:35:40;;;;;;;4.50;3.08;;;;;;;22.99;86.92;98279.84;5058396;28;20036;-76
2023/10/20 02:38:05;;;;;;;5.72;4.30;;;;;;;23.00;87.02;98281.41;5056571;28;20047;-76
2023/10/20 02:40:31;;;;;;;4.80;3.28;;;;;;;22.99;86.75;98277.09;5058182;28;20283;-76
2023/10/20 02:42:56;;;;;;;6.15;3.20;;;;;;;22.99;86.65;98274.31;5043948;28;20035;-76
2023/10/20 02:45:21;;;;;;;8.43;3.30;;;;;;;23.00;86.35;98270.38;5022551;28;20119;-76
2023/10/20 02:47:47;;;;;;;3.45;3.10;;;;;;;22.98;86.64;98263.63;5057312;28;20043;-76
2023/10/20 02:50:12;;;;;;;5.00;3.20;;;;;;;22.98;86.56;98258.91;5037315;28;20323;-76
2023/10/20 02:52:38;;;;;;;5.47;3.63;;;;;;;22.96;86.75;98260.47;5043497;28;20101;-76
2023/10/20 02:55:03;;;;;;;4.85;3.30;;;;;;;22.96;86.93;98250.19;5038263;28;20377;-76
2023/10/20 02:57:29;;;;;;;4.10;3.35;;;;;;;22.97;86.92;98248.22;5056290;28;20067;-76
2023/10/20 02:59:55;;;;;;;3.60;3.05;;;;;;;22.96;86.85;98243.88;5057373;28;20107;-76
2023/10/20 03:02:20;;;;;;;6.18;2.97;;;;;;;22.93;86.91;98239.91;5037238;28;20116;-76
2023/10/20 03:04:46;;;;;;;3.97;3.35;;;;;;;22.93;87.03;98245.44;5044755;28;20036;-76
2023/10/20 03:07:12;;;;;;;4.38;3.15;;;;;;;22.92;86.79;98235.56;5056277;28;20031;-76
2023/10/20 03:09:38;;;;;;;6.40;3.65;;;;;;;22.92;86.88;98239.09;5021901;28;20284;-76
2023/10/20 03:12:04;;;;;;;5.38;3.35;;;;;;;22.92;86.90;98238.31;5055292;28;20039;-76
2023/10/20 03:14:30;;;;;;;5.90;3.22;;;;;;;22.94;86.71;98226.88;5040253;28;20461;-76
2023/10/20 03:16:56;;;;;;;4.75;4.28;;;;;;;22.91;87.03;98220.94;5037087;28;20028;-76
2023/10/20 03:19:22;;;;;;;4.45;3.38;;;;;;;22.92;87.11;98213.47;5057461;28;20040;-76
2023/10/20 03:21:47;;;;;;;6.63;4.00;;;;;;;22.92;86.85;98213.47;5042695;28;20027;-76
2023/10/20 03:24:13;;;;;;;4.85;3.80;;;;;;;22.91;86.92;98214.63;5058335;28;20124;-76
2023/10/20 03:26:38;;;;;;;6.82;3.42;;;;;;;22.91;87.04;98209.09;5036750;28;20036;-76
2023/10/20 03:29:04;;;;;;;4.35;3.67;;;;;;;22.92;86.92;98214.25;5056122;28;20455;-76
2023/10/20 03:31:30;;;;;;;5.18;4.20;;;;;;;22.88;86.69;98207.88;5022665;28;20040;-76
2023/10/20 03:33:56;;;;;;;4.53;4.10;;;;;;;22.90;86.89;98207.50;5040842;28;20428;-75
2023/10/20 03:36:21;;;;;;;5.65;4.55;;;;;;;22.88;87.12;98215.34;5055819;28;20043;-74
2023/10/20 03:38:49;;;;;;;6.85;3.75;;;;;;;22.87;87.06;98211.81;5021458;28;20883;-74
2023/10/20 03:41:15;;;;;;;4.95;4.45;;;;;;;22.87;87.14;98205.50;5036662;28;20428;-74
2023/10/20 03:43:40;;;;;;;5.90;4.07;;;;;;;22.87;87.23;98202.75;5058489;28;21478;-74
2023/10/20 03:46:06;;;;;;;7.20;4.93;;;;;;;22.87;87.54;98200.75;5026476;28;21533;-74
2023/10/20 03:48:33;;;;;;;5.22;3.80;;;;;;;22.86;87.07;98210.22;5059662;28;20536;-74
2023/10/20 03:50:59;;;;;;;4.88;4.38;;;;;;;22.86;86.90;98193.66;5041498;28;20632;-74
2023/10/20 03:53:27;;;;;;;5.07;4.15;;;;;;;22.87;87.02;98199.97;5061030;28;20032;-74
2023/10/20 03:56:02;;;;;;;4.53;4.10;;;;;;;22.86;87.20;98185.34;5039979;28;20046;-74
2023/10/20 03:58:29;;;;;;;5.90;4.15;;;;;;;22.88;86.98;98182.22;5046491;28;20035;-72
2023/10/20 04:01:02;;;;;;;6.05;3.92;;;;;;;22.88;87.02;98177.50;5040275;28;20040;-75
2023/10/20 04:03:30;;;;;;;6.78;4.45;;;;;;;22.88;87.42;98177.50;5038663;28;20293;-73
2023/10/20 04:05:56;;;;;;;6.47;4.90;;;;;;;22.87;87.21;98175.91;5056339;28;20127;-73
2023/10/20 04:08:22;;;;;;;6.30;4.40;;;;;;;22.89;87.41;98170.00;5058864;28;20464;-73
2023/10/20 04:10:48;;;;;;;6.97;5.30;;;;;;;22.87;87.10;98162.09;5057929;28;20027;-73
2023/10/20 04:13:13;;;;;;;5.60;4.93;;;;;;;22.88;87.38;98160.13;5058155;28;20028;-73
2023/10/20 04:15:39;;;;;;;5.43;4.55;;;;;;;22.87;87.06;98159.34;5053502;28;20032;-72
2023/10/20 04:18:05;;;;;;;6.30;5.22;;;;;;;22.87;87.52;98136.47;5055960;28;20036;-73
2023/10/20 04:20:35;;;;;;;7.47;5.72;;;;;;;22.87;87.52;98133.72;5038700;28;20031;-73
2023/10/20 04:23:00;;;;;;;6.28;5.68;;;;;;;22.88;87.43;98143.56;5056545;28;20437;-72
2023/10/20 04:25:33;;;;;;;10.02;7.35;;;;;;;22.85;87.33;98131.28;5057893;28;20058;-73
2023/10/20 04:28:05;;;;;;;6.75;5.75;;;;;;;22.85;87.41;98128.53;5037325;28;20040;-73
2023/10/20 04:54:58;;;;;;;8.52;7.20;;;;;;;22.82;87.63;98109.16;5049216;28;20028;-73
2023/10/20 04:59:44;;;;;;;9.65;6.78;;;;;;;22.83;87.30;98111.56;5049929;28;20082;-73
2023/10/20 05:02:33;;;;;;;8.57;7.20;;;;;;;22.84;87.26;98099.31;5030080;28;20025;-73
2023/10/20 05:05:06;;;;;;;8.55;6.82;;;;;;;22.83;87.46;98092.25;5029614;28;20032;-73
2023/10/20 05:07:32;;;;;;;16.98;7.63;;;;;;;22.84;87.59;98093.03;5030455;28;20064;-73
2023/10/20 05:09:57;;;;;;;9.95;7.38;;;;;;;22.83;87.25;98089.47;5048668;28;20040;-73
2023/10/20 05:12:23;;;;;;;9.98;7.10;;;;;;;22.82;87.68;98085.13;5062721;28;20036;-73
2023/10/20 05:14:49;;;;;;;9.52;7.60;;;;;;;22.82;87.34;98070.50;5027653;28;20032;-73
2023/10/20 05:17:17;;;;;;;8.98;7.35;;;;;;;22.82;87.20;98065.78;5030086;28;20033;-73
2023/10/20 05:19:43;;;;;;;9.90;7.75;;;;;;;22.82;87.25;98078.78;5047808;28;20042;-73
2023/10/20 05:22:09;;;;;;;9.48;7.38;;;;;;;22.82;87.11;98059.47;5048138;28;20052;-73
2023/10/20 05:24:35;;;;;;;9.10;7.47;;;;;;;22.81;86.95;98044.88;5047082;28;20039;-73
2023/10/20 05:27:00;;;;;;;9.38;7.50;;;;;;;22.80;86.94;98043.28;5048566;28;21099;-74
2023/10/20 05:29:25;;;;;;;9.70;6.82;;;;;;;22.80;87.11;98028.69;5050133;28;20576;-73
2023/10/20 05:31:51;;;;;;;14.70;7.43;;;;;;;22.81;86.92;98044.06;5034057;28;20044;-73
2023/10/20 05:34:17;;;;;;;8.52;7.18;;;;;;;22.81;86.66;98044.88;5030276;28;20036;-73
2023/10/20 05:36:44;;;;;;;8.82;7.13;;;;;;;22.81;86.74;98041.31;5047725;28;20040;-73
2023/10/20 05:39:12;;;;;;;9.07;7.45;;;;;;;22.78;86.70;98050.34;5048445;28;20103;-74
2023/10/20 05:41:37;;;;;;;10.95;7.65;;;;;;;22.78;86.83;98045.63;5033057;28;20024;-73
2023/10/20 05:44:04;;;;;;;8.55;7.25;;;;;;;22.78;86.64;98053.91;5050483;28;20043;-73
2023/10/20 05:46:30;;;;;;;9.25;7.53;;;;;;;22.77;86.82;98052.34;5048604;28;20361;-73
2023/10/20 05:48:55;;;;;;;10.05;7.43;;;;;;;22.78;86.75;98048.38;5032576;28;21169;-73
2023/10/20 05:51:21;;;;;;;8.93;7.63;;;;;;;22.78;86.27;98042.06;5053162;28;20349;-73
2023/10/20 05:53:46;;;;;;;9.75;7.53;;;;;;;22.77;86.59;98041.28;5047926;28;20046;-74
2023/10/20 05:56:12;;;;;;;9.90;7.05;;;;;;;22.76;86.46;98037.72;5015987;28;21789;-73
2023/10/20 05:58:37;;;;;;;10.05;7.07;;;;;;;22.75;86.33;98018.78;5050549;28;20036;-73
2023/10/20 06:01:04;;;;;;;9.68;7.35;;;;;;;22.74;86.46;98023.47;5051970;28;20710;-73
2023/10/20 06:03:30;;;;;;;10.05;7.22;;;;;;;22.75;86.38;98024.28;5036797;28;20528;-73
2023/10/20 06:06:03;;;;;;;10.52;7.03;;;;;;;22.75;86.17;98035.34;5050470;28;20439;-73
2023/10/20 06:08:29;;;;;;;9.82;7.25;;;;;;;22.73;86.40;98027.44;5049542;28;20976;-73
2023/10/20 06:11:05;;;;;;;9.88;7.43;;;;;;;22.73;86.09;98029.38;5050376;28;20043;-73
2023/10/20 06:13:35;;;;;;;9.27;7.30;;;;;;;22.74;85.62;98026.25;5031685;28;20086;-73
2023/10/20 06:16:20;;;;;;;9.60;7.15;;;;;;;22.72;85.83;98028.59;5046920;28;20027;-74
2023/10/20 06:18:45;;;;;;;8.65;7.07;;;;;;;22.73;85.53;98026.63;5037986;28;20051;-73
2023/10/20 06:21:16;;;;;;;9.15;7.10;;;;;;;22.71;85.46;98038.06;5057512;28;20483;-73
2023/10/20 06:23:42;;;;;;;9.75;7.80;;;;;;;22.69;85.52;98039.59;5058369;28;20125;-73
2023/10/20 06:26:08;;;;;;;7.68;6.53;;;;;;;;;;5045575;28;20484;-73
2023/10/20 06:28:33;;;;;;;9.40;7.00;;;;;;;22.69;85.49;98039.59;5038932;28;20588;-73
2023/10/20 06:31:01;;;;;;;8.15;6.80;;;;;;;;;;5058369;28;20300;-73
2023/10/20 06:33:37;;;;;;;11.48;7.15;;;;;;;22.69;85.44;98036.84;5039225;28;20890;-73
2023/10/20 06:36:10;;;;;;;8.80;7.30;;;;;;;22.66;85.72;98029.31;5057691;28;20102;-73
2023/10/20 06:38:45;;;;;;;7.93;6.30;;;;;;;22.66;85.60;98032.06;5058940;28;20040;-73
2023/10/20 06:41:13;;;;;;;9.60;7.13;;;;;;;22.68;85.46;98013.16;5039313;28;20028;-72
2023/10/20 06:43:38;;;;;;;8.63;7.07;;;;;;;22.64;85.41;98018.66;5023774;28;20040;-73
2023/10/20 06:46:04;;;;;;;7.78;6.50;;;;;;;22.64;85.71;98009.59;5056959;28;20780;-73
2023/10/20 06:48:30;;;;;;;8.18;6.60;;;;;;;22.63;85.31;98006.00;5042049;28;20036;-73
2023/10/20 06:50:56;;;;;;;7.00;5.93;;;;;;;22.63;85.33;98022.56;5054761;28;20070;-73
2023/10/20 06:53:22;;;;;;;9.30;6.70;;;;;;;22.64;85.28;98017.88;5036241;28;20028;-73
2023/10/20 06:55:48;;;;;;;8.27;6.30;;;;;;;22.63;85.25;98014.28;5037679;28;20032;-72
2023/10/20 06:58:17;;;;;;;7.03;6.30;;;;;;;22.61;85.38;98016.63;5038518;28;20391;-72
2023/10/20 07:00:44;;;;;;;9.25;6.57;;;;;;;22.60;85.16;98024.13;5040801;28;20491;-72
2023/10/20 07:03:10;;;;;;;9.43;6.15;;;;;;;22.60;85.34;98017.81;5058462;28;20080;-72
2023/10/20 07:05:37;;;;;;;7.97;6.45;;;;;;;22.59;84.97;98024.50;5039009;28;20027;-72
2023/10/20 07:08:04;;;;;;;7.10;6.40;;;;;;;22.58;85.32;98031.97;5056778;28;20048;-72
2023/10/20 07:10:33;;;;;;;6.65;5.80;;;;;;;22.57;84.97;98022.13;5056865;28;20036;-72
2023/10/20 07:13:00;;;;;;;7.10;5.45;;;;;;;22.57;84.99;98013.03;5039342;28;21723;-73
2023/10/20 07:15:26;;;;;;;7.93;5.93;;;;;;;22.56;84.81;98008.69;5038341;28;20089;-72
2023/10/20 07:17:51;;;;;;;8.20;6.03;;;;;;;22.56;85.10;98005.91;5038784;28;20069;-73
2023/10/20 07:20:16;;;;;;;6.53;5.85;;;;;;;22.53;85.27;98004.72;5057701;28;20043;-72
2023/10/20 07:22:42;;;;;;;7.13;5.93;;;;;;;22.54;85.10;98009.06;5057695;28;20154;-72
2023/10/20 07:25:08;;;;;;;6.40;5.50;;;;;;;22.55;84.93;98013.41;5037469;28;20100;-73
2023/10/20 07:27:33;;;;;;;6.75;5.43;;;;;;;22.55;84.89;98009.84;5053805;28;20036;-73
2023/10/20 07:29:59;;;;;;;5.90;5.30;;;;;;;22.54;84.70;98000.00;5050158;28;20075;-74
2023/10/20 07:32:25;;;;;;;6.93;5.53;;;;;;;22.53;84.26;98006.69;5053926;28;20040;-74
2023/10/20 07:34:51;;;;;;;5.97;5.20;;;;;;;22.51;84.72;97990.47;5060600;28;20467;-74
2023/10/20 07:37:16;;;;;;;6.57;5.25;;;;;;;22.52;84.61;97992.06;5040849;28;20039;-74
2023/10/20 07:39:43;;;;;;;7.38;4.93;;;;;;;22.52;84.81;98003.13;5037767;28;20087;-74
2023/10/20 07:42:09;;;;;;;6.00;4.80;;;;;;;22.50;84.74;97996.38;5050541;28;20515;-74
2023/10/20 07:44:34;;;;;;;8.02;5.05;;;;;;;22.50;84.50;97996.38;5037821;28;20042;-73
2023/10/20 07:47:00;;;;;;;7.20;5.38;;;;;;;22.50;84.53;98002.72;5068669;28;20040;-74
2023/10/20 07:49:25;;;;;;;8.02;4.68;;;;;;;22.49;84.48;98006.66;5036203;28;20028;-73
2023/10/20 07:51:52;;;;;;;11.77;5.65;;;;;;;22.50;84.33;98007.44;5034460;28;20110;-73
2023/10/20 07:54:17;;;;;;;10.65;5.40;;;;;;;22.50;84.20;97994.44;5032375;28;20270;-73
2023/10/20 07:56:42;;;;;;;10.30;5.10;;;;;;;22.49;84.27;97987.31;5035620;28;20468;-74
2023/10/20 07:59:08;;;;;;;11.95;4.95;;;;;;;22.49;84.18;97984.56;5031884;28;20047;-73
2023/10/20 08:01:34;;;;;;;13.00;5.05;;;;;;;22.47;84.10;97977.84;5030598;28;20036;-73
2023/10/20 08:03:59;;;;;;;14.50;5.40;;;;;;;22.47;84.11;97970.34;5029133;28;20724;-74
2023/10/20 08:06:25;;;;;;;9.98;4.72;;;;;;;22.48;83.81;97971.94;5048885;28;20032;-73
2023/10/20 08:08:50;;;;;;;9.18;4.40;;;;;;;22.46;83.84;97982.53;5047574;28;20084;-73
2023/10/20 08:11:16;;;;;;;10.32;4.38;;;;;;;22.48;84.00;97960.13;5048091;28;20119;-73
2023/10/20 08:13:41;;;;;;;7.57;3.95;;;;;;;22.46;83.37;97960.47;5028525;28;20093;-73
2023/10/20 08:16:08;;;;;;;8.57;4.65;;;;;;;22.47;83.48;97953.00;5035580;28;20677;-73
2023/10/20 08:18:34;;;;;;;5.53;3.92;;;;;;;22.46;83.35;97926.56;5027761;28;20098;-72
2023/10/20 08:21:04;;;;;;;6.00;3.75;;;;;;;22.44;83.18;97944.28;5029503;28;20672;-74
2023/10/20 08:23:30;;;;;;;4.63;3.33;;;;;;;22.45;83.49;97950.59;5032534;28;20094;-73
2023/10/20 08:25:55;;;;;;;6.72;3.60;;;;;;;22.43;83.35;97962.03;5045735;28;21467;-74
2023/10/20 08:28:20;;;;;;;7.30;3.75;;;;;;;22.44;83.23;97960.06;5029256;28;20426;-74
2023/10/20 08:30:46;;;;;;;5.55;3.67;;;;;;;22.43;82.78;97947.44;5029347;28;21551;-73
2023/10/20 08:33:11;;;;;;;4.82;3.50;;;;;;;22.44;83.05;97960.06;5027560;28;20151;-74
2023/10/20 08:35:37;;;;;;;4.57;3.40;;;;;;;22.42;82.73;97946.63;5063234;28;20206;-73
2023/10/20 08:38:03;;;;;;;4.70;3.67;;;;;;;22.41;82.70;97935.97;5048719;28;20036;-73
2023/10/20 08:40:35;;;;;;;5.10;3.00;;;;;;;22.41;82.61;97930.47;5029599;28;20028;-73
2023/10/20 08:43:04;;;;;;;4.07;3.17;;;;;;;22.40;82.50;97949.00;5050137;28;20856;-73
2023/10/20 08:45:33;;;;;;;4.78;3.30;;;;;;;22.39;82.64;97947.41;5033173;28;20039;-73
2023/10/20 08:48:02;;;;;;;3.42;3.08;;;;;;;22.39;82.35;97949.34;5029838;28;20480;-73
2023/10/20 08:50:31;;;;;;;3.50;3.20;;;;;;;22.40;82.33;97945.41;5049663;28;20089;-72
2023/10/20 08:52:58;;;;;;;2.80;2.55;;;;;;;22.39;82.14;97952.09;5048306;28;20111;-73
2023/10/20 08:55:24;;;;;;;3.38;3.08;;;;;;;22.37;82.29;97946.94;5047314;28;20028;-73
2023/10/20 08:57:49;;;;;;;4.05;2.80;;;;;;;22.37;82.30;97951.69;5013142;28;20074;-74
2023/10/20 09:00:20;;;;;;;3.25;2.90;;;;;;;22.37;82.27;97946.94;5046965;28;20038;-74
2023/10/20 09:02:47;;;;;;;3.40;2.70;;;;;;;22.37;82.02;97946.16;5029920;28;20112;-73
2023/10/20 09:05:20;;;;;;;2.90;2.70;;;;;;;22.36;81.79;97939.03;5045674;28;20131;-73
2023/10/20 09:08:02;;;;;;;3.13;2.70;;;;;;;22.32;81.81;97936.25;5050999;28;20043;-73
2023/10/20 09:10:27;;;;;;;3.92;2.60;;;;;;;22.33;82.03;97948.06;5044494;28;20040;-73
2023/10/20 09:12:52;;;;;;;3.17;2.67;;;;;;;22.31;81.72;97947.66;5010533;28;20063;-73
2023/10/20 09:15:18;;;;;;;2.60;2.40;;;;;;;22.31;81.65;97947.66;5035125;28;20466;-73
2023/10/20 09:17:44;;;;;;;2.95;2.60;;;;;;;22.30;82.03;97949.59;5051824;28;20492;-73
2023/10/20 09:20:14;;;;;;;2.88;2.58;;;;;;;22.31;81.86;97959.47;5051635;28;20032;-73
2023/10/20 09:22:40;;;;;;;2.42;2.22;;;;;;;22.30;81.67;97946.84;5052918;28;20067;-72
2023/10/20 09:25:12;;;;;;;4.55;2.50;;;;;;;22.31;81.62;97944.91;5050654;28;20486;-72
2023/10/20 09:27:38;;;;;;;2.63;2.42;;;;;;;22.30;81.76;97940.56;5038595;28;20035;-72
2023/10/20 09:30:08;;;;;;;2.42;2.15;;;;;;;22.30;81.37;97932.28;5050005;28;20048;-72
2023/10/20 09:32:35;;;;;;;2.75;2.33;;;;;;;22.31;81.42;97933.88;5051600;28;20150;-72
2023/10/20 09:35:02;;;;;;;4.15;2.30;;;;;;;22.29;81.29;97925.94;5030958;28;20028;-71
2023/10/20 09:37:29;;;;;;;3.03;2.30;;;;;;;22.28;81.39;97927.13;5016991;28;20607;-73
2023/10/20 09:40:05;;;;;;;5.05;2.50;;;;;;;22.27;81.36;97939.34;5034073;28;20118;-72
2023/10/20 09:42:50;;;;;;;3.20;2.22;;;;;;;22.28;81.12;97929.91;5033304;28;20032;-72
2023/10/20 09:45:28;;;;;;;2.08;1.88;;;;;;;22.28;80.93;97929.91;5049685;28;20032;-72
2023/10/20 09:48:00;;;;;;;2.38;2.17;;;;;;;22.27;80.91;97925.53;5044834;28;20027;-73
2023/10/20 09:50:26;;;;;;;2.10;1.90;;;;;;;22.26;81.00;97921.19;5050607;28;20683;-72
2023/10/20 09:52:52;;;;;;;2.40;2.20;;;;;;;22.26;80.99;97929.47;5012973;28;20036;-72
2023/10/20 09:55:19;;;;;;;2.83;2.08;;;;;;;22.24;80.74;97906.97;5061812;28;20031;-73
2023/10/20 09:57:47;;;;;;;2.85;2.20;;;;;;;22.25;nan;97900.28;5044470;28;20279;-73
2023/10/20 10:00:12;;;;;;;4.18;1.90;;;;;;;22.24;80.50;97901.47;5049513;28;20498;-74
2023/10/20 10:02:38;;;;;;;2.20;2.00;;;;;;;22.24;80.47;97905.03;5033506;28;20036;-74
2023/10/20 10:05:09;;;;;;;2.20;2.00;;;;;;;22.24;80.67;97905.03;5032743;28;20028;-73
2023/10/20 10:07:34;;;;;;;2.22;1.80;;;;;;;22.25;80.58;97905.81;5043137;28;20150;-73
2023/10/20 10:10:00;;;;;;;2.50;1.92;;;;;;;22.24;80.32;97899.50;5048345;28;20032;-73
2023/10/20 10:12:27;;;;;;;2.17;1.98;;;;;;;22.23;80.39;97906.19;5049146;28;20491;-73
2023/10/20 10:15:07;;;;;;;1.90;1.80;;;;;;;22.24;80.40;97904.22;5035088;28;20817;-73
2023/10/20 10:17:46;;;;;;;2.85;2.05;;;;;;;22.24;80.38;97899.50;5030254;28;20040;-73
2023/10/20 10:20:22;;;;;;;2.97;1.50;;;;;;;22.25;80.08;97906.59;5016842;28;20028;-73
2023/10/20 10:22:58;;;;;;;2.03;1.83;;;;;;;22.25;80.16;97892.00;5050068;28;20314;-73
2023/10/20 10:25:37;;;;;;;1.70;1.60;;;;;;;22.26;80.08;97905.44;5048730;28;20032;-73
2023/10/20 10:28:17;;;;;;;3.97;1.77;;;;;;;22.27;80.18;97901.50;5048599;28;20032;-73
2023/10/20 10:30:47;;;;;;;2.85;1.88;;;;;;;22.29;79.91;97898.34;5032069;28;20036;-74
2023/10/20 10:33:13;;;;;;;1.70;1.60;;;;;;;22.30;80.07;97896.41;5034135;28;20040;-76
2023/10/20 10:35:39;;;;;;;2.97;1.63;;;;;;;22.30;79.72;97896.41;5052074;28;21440;-75
2023/10/20 10:38:17;;;;;;;1.75;1.65;;;;;;;22.30;80.26;97894.44;5014733;28;20042;-75
2023/10/20 10:40:45;;;;;;;7.70;1.73;;;;;;;22.34;80.33;97895.28;5050431;28;20028;-78
2023/10/20 10:43:22;;;;;;;3.80;1.63;;;;;;;22.36;80.49;97887.41;5050574;28;20658;-75
2023/10/20 10:45:54;;;;;;;9.32;2.15;;;;;;;22.40;80.85;97887.47;5050991;28;20039;-75
2023/10/20 10:48:23;;;;;;;3.72;1.55;;;;;;;22.40;80.95;97884.72;5031486;28;20050;-77
2023/10/20 10:50:49;;;;;;;3.25;1.65;;;;;;;22.38;81.07;97868.53;5050505;28;20400;-73
2023/10/20 10:53:14;;;;;;;6.70;1.88;;;;;;;22.37;81.09;97871.66;5051763;28;20053;-78
2023/10/20 10:55:41;;;;;;;7.97;1.60;;;;;;;22.36;81.21;97859.81;4999147;28;20101;-78
2023/10/20 10:58:08;;;;;;;2.95;1.70;;;;;;;22.39;81.35;97852.78;5034983;28;21748;-74
2023/10/20 11:00:35;;;;;;;3.00;1.70;;;;;;;22.38;80.87;97849.22;5015272;28;20037;-74
2023/10/20 11:03:02;;;;;;;4.90;1.50;;;;;;;22.38;80.88;97840.97;5050174;28;20036;-75
2023/10/20 11:05:28;;;;;;;3.30;1.60;;;;;;;22.38;80.89;97834.66;5026402;28;20456;-74
2023/10/20 11:08:07;;;;;;;11.07;1.60;;;;;;;22.36;81.04;97831.44;5050778;28;20020;-74
2023/10/20 11:10:36;;;;;;;4.28;2.10;;;;;;;22.37;80.98;97844.84;5015443;28;20040;-74
2023/10/20 11:13:10;;;;;;;2.05;1.50;;;;;;;22.37;80.66;97833.81;5050551;28;20035;-74
2023/10/20 11:15:37;;;;;;;5.43;1.63;;;;;;;22.37;80.46;97831.06;5050193;28;20036;-74
2023/10/20 11:18:04;;;;;;;5.43;2.13;;;;;;;22.38;80.46;97829.16;5049398;28;20032;-74
2023/10/20 11:20:38;;;;;;;1.85;1.52;;;;;;;22.38;79.77;97820.88;5049550;28;21607;-74
2023/10/20 11:23:07;;;;;;;5.35;1.50;;;;;;;22.39;79.99;97811.38;5049395;28;20748;-74
2023/10/20 11:25:33;;;;;;;1.48;1.30;;;;;;;22.39;79.71;97805.88;5049273;28;20038;-74
2023/10/20 11:27:58;;;;;;;2.88;1.30;;;;;;;22.39;79.54;97801.16;5052733;28;20127;-74
2023/10/20 11:30:25;;;;;;;3.88;1.30;;;;;;;22.40;79.40;97797.25;5037065;28;20496;-74
2023/10/20 11:32:53;;;;;;;3.00;1.50;;;;;;;22.39;79.19;97801.16;5053958;28;20035;-74
2023/10/20 11:35:18;;;;;;;2.80;1.33;;;;;;;22.41;79.10;97798.03;5055072;28;20029;-74
2023/10/20 11:37:43;;;;;;;2.80;1.20;;;;;;;22.41;79.46;97806.28;5052904;28;20035;-73
2023/10/20 11:40:09;;;;;;;1.58;1.20;;;;;;;22.39;78.84;97797.59;5053047;28;20421;-74
2023/10/20 11:42:35;;;;;;;1.63;1.20;;;;;;;22.40;78.87;97788.16;5053739;28;20046;-74
2023/10/20 11:45:01;;;;;;;1.20;1.10;;;;;;;22.37;78.73;97791.66;5035935;28;20036;-74
2023/10/20 11:47:26;;;;;;;4.45;1.40;;;;;;;22.37;78.64;97788.91;5040170;28;20060;-74
2023/10/20 11:49:54;;;;;;;2.15;1.20;;;;;;;22.38;78.63;97791.28;5054006;28;20127;-74
2023/10/20 11:52:22;;;;;;;1.75;1.13;;;;;;;22.39;78.63;97783.81;5035152;28;20028;-74
2023/10/20 11:54:48;;;;;;;1.38;0.90;;;;;;;22.37;78.88;97777.84;5054989;28;20032;-74
2023/10/20 11:57:14;;;;;;;1.55;1.20;;;;;;;22.35;78.75;97778.22;5031158;28;20043;-74
2023/10/20 11:59:40;;;;;;;2.50;1.20;;;;;;;22.36;78.79;97777.06;5030520;28;20588;-74
2023/10/20 12:02:06;;;;;;;3.38;1.10;;;;;;;22.37;78.83;97764.06;5049501;28;20032;-74